Time;durP1;ratioP1;P1;durP2;ratioP2;P2;SDS_P1;SDS_P2;PMS_P1;PMS_P2;Temp;Humidity;BMP_temperature;BMP_pressure;BME280_temperature;BME280_humidity;BME280_pressure;Samples;Min_cycle;Max_cycle;Signal;HPM_P1;HPM_P2
2023/07/10 00:16:54;;;;;;;0.10;0.10;;;;;;;23.02;100.00;99249.78;5066748;28;20566;-78
2023/07/10 00:19:23;;;;;;;0.10;0.10;;;;;;;22.84;100.00;99236.53;5060684;28;20232;-78
2023/07/10 00:21:52;;;;;;;0.10;0.10;;;;;;;22.98;100.00;99224.16;5064724;28;20201;-78
2023/07/10 00:24:20;;;;;;;0.10;0.10;;;;;;;22.96;100.00;99225.31;5066618;28;20199;-78
2023/07/10 00:26:49;;;;;;;0.10;0.10;;;;;;;23.01;100.00;99236.47;5058382;28;20200;-79
2023/07/10 00:29:25;;;;;;;0.10;0.10;;;;;;;23.07;100.00;99241.19;5065157;28;20264;-79
2023/07/10 00:31:55;;;;;;;0.10;0.10;;;;;;;23.01;100.00;99234.59;5066612;28;20180;-79
2023/07/10 00:34:32;;;;;;;0.10;0.10;;;;;;;22.98;100.00;99224.16;5066484;28;20189;-79
2023/07/10 00:37:01;;;;;;;0.10;0.10;;;;;;;22.94;100.00;99230.06;5065490;28;20200;-78
2023/07/10 00:39:31;;;;;;;0.10;0.10;;;;;;;22.93;100.00;99231.09;5045846;28;20199;-78
2023/07/10 00:42:02;;;;;;;0.10;0.10;;;;;;;22.91;100.00;99233.97;5030063;28;20203;-79
2023/07/10 00:44:36;;;;;;;0.10;0.10;;;;;;;22.92;100.00;99240.22;5065323;28;20192;-78
2023/07/10 00:47:10;;;;;;;0.10;0.10;;;;;;;23.06;100.00;99237.59;5060769;28;20789;-78
2023/07/10 00:49:45;;;;;;;0.10;0.10;;;;;;;22.97;100.00;99237.81;5065376;28;20191;-79
2023/07/10 00:52:19;;;;;;;0.10;0.10;;;;;;;22.92;100.00;99246.47;5063811;28;20627;-79
2023/07/10 00:54:50;;;;;;;0.10;0.10;;;;;;;23.04;100.00;99238.81;5066557;28;20192;-79
2023/07/10 00:57:22;;;;;;;0.05;0.05;;;;;;;22.76;100.00;99236.50;5066584;28;20253;-79
2023/07/10 00:59:52;;;;;;;0.10;0.10;;;;;;;22.68;100.00;99241.97;5063626;28;20211;-79
2023/07/10 01:02:23;;;;;;;0.10;0.10;;;;;;;22.66;100.00;99233.19;5062056;28;20189;-79
2023/07/10 01:05:02;;;;;;;0.10;0.10;;;;;;;22.64;100.00;99229.81;5065217;28;20209;-78
2023/07/10 01:07:36;;;;;;;0.10;0.10;;;;;;;22.60;100.00;99231.19;5066205;28;20177;-79
2023/07/10 01:10:09;;;;;;;0.10;0.10;;;;;;;22.57;100.00;99228.81;5063828;28;20195;-79
2023/07/10 01:12:39;;;;;;;0.10;0.10;;;;;;;22.49;100.00;99232.41;5004772;28;20187;-79
2023/07/10 01:15:10;;;;;;;0.10;0.10;;;;;;;22.50;100.00;99235.94;5007603;28;20751;-79
2023/07/10 01:17:40;;;;;;;0.10;0.10;;;;;;;22.49;100.00;99237.81;4989848;28;20227;-79
2023/07/10 01:20:36;;;;;;;0.10;0.10;;;;;;;22.69;100.00;99243.66;4996085;28;20198;-79
2023/07/10 01:23:07;;;;;;;0.10;0.10;;;;;;;22.74;100.00;99237.72;4986272;28;20271;-79
2023/07/10 01:25:43;;;;;;;0.10;0.10;;;;;;;22.73;100.00;99236.88;4986518;28;20200;-79
2023/07/10 01:28:17;;;;;;;0.10;0.10;;;;;;;22.72;100.00;99245.16;4991662;28;20206;-79
2023/07/10 01:30:53;;;;;;;0.10;0.10;;;;;;;22.69;100.00;99249.06;4988876;28;20183;-79
2023/07/10 01:33:27;;;;;;;0.10;0.10;;;;;;;22.46;100.00;99257.03;4991429;28;20203;-79
2023/07/10 01:35:58;;;;;;;0.10;0.10;;;;;;;22.43;100.00;99262.78;4937870;28;20203;-79
2023/07/10 01:38:35;;;;;;;0.10;0.10;;;;;;;22.38;100.00;99275.09;4992691;28;20281;-79
2023/07/10 01:41:12;;;;;;;0.10;0.10;;;;;;;22.40;100.00;99275.78;4991369;28;20662;-79
2023/07/10 01:43:41;;;;;;;0.10;0.10;;;;;;;22.33;100.00;99281.00;5016523;28;20200;-79
2023/07/10 01:46:18;;;;;;;0.10;0.10;;;;;;;22.38;100.00;99283.19;5046876;28;20304;-79
2023/07/10 01:48:48;;;;;;;0.10;0.10;;;;;;;22.41;100.00;99280.16;5052596;28;20214;-79
2023/07/10 01:51:16;;;;;;;0.10;0.10;;;;;;;22.43;100.00;99284.38;5044016;28;20212;-79
2023/07/10 01:53:47;;;;;;;0.10;0.10;;;;;;;22.42;100.00;99282.69;5046868;28;20205;-79
2023/07/10 01:56:19;;;;;;;0.10;0.10;;;;;;;22.43;100.00;99281.66;5051648;28;20205;-79
2023/07/10 01:58:47;;;;;;;0.10;0.10;;;;;;;22.44;100.00;99304.09;5050116;28;20187;-79
2023/07/10 02:01:16;;;;;;;0.05;0.05;;;;;;;22.39;100.00;99303.75;5051944;28;20205;-79
2023/07/10 02:03:45;;;;;;;0.10;0.10;;;;;;;22.32;100.00;99298.22;5049964;28;20235;-79
2023/07/10 02:06:13;;;;;;;0.10;0.10;;;;;;;22.40;100.00;99310.88;5050632;28;20292;-79
2023/07/10 02:08:42;;;;;;;0.10;0.10;;;;;;;22.27;100.00;99312.22;5046499;28;20189;-79
2023/07/10 02:11:14;;;;;;;0.10;0.10;;;;;;;22.21;100.00;99317.47;5046673;28;20245;-79
2023/07/10 02:13:42;;;;;;;0.10;0.10;;;;;;;22.08;100.00;99331.44;5052099;28;20674;-78
2023/07/10 02:16:12;;;;;;;0.10;0.10;;;;;;;21.63;100.00;99338.09;5017316;28;20216;-78
2023/07/10 02:18:43;;;;;;;0.10;0.10;;;;;;;21.47;100.00;99345.28;5051777;28;20182;-78
2023/07/10 02:21:11;;;;;;;0.10;0.10;;;;;;;21.17;100.00;99350.16;5044939;28;20208;-79
2023/07/10 02:23:40;;;;;;;0.10;0.10;;;;;;;21.63;100.00;99343.47;5051744;28;20197;-79
2023/07/10 02:26:10;;;;;;;0.10;0.10;;;;;;;21.86;100.00;99346.38;5051873;28;20209;-79
2023/07/10 02:28:40;;;;;;;0.10;0.10;;;;;;;21.86;100.00;99346.38;5029916;28;20209;-79
2023/07/10 02:31:09;;;;;;;0.10;0.10;;;;;;;21.88;100.00;99332.72;5049744;28;20623;-79
2023/07/10 02:33:38;;;;;;;0.10;0.10;;;;;;;22.12;100.00;99331.97;5046653;28;20664;-79
2023/07/10 02:36:07;;;;;;;0.10;0.10;;;;;;;22.11;100.00;99330.28;5050399;28;20193;-79
2023/07/10 02:38:35;;;;;;;0.10;0.10;;;;;;;22.25;100.00;99335.00;5047252;28;20193;-79
2023/07/10 02:41:03;;;;;;;0.10;0.10;;;;;;;22.14;100.00;99329.94;5046079;28;20199;-79
2023/07/10 02:43:32;;;;;;;0.10;0.10;;;;;;;22.13;100.00;99318.28;5048453;28;20201;-79
2023/07/10 02:46:02;;;;;;;0.10;0.10;;;;;;;21.97;100.00;99302.06;5048262;28;20221;-78
2023/07/10 02:48:32;;;;;;;0.10;0.10;;;;;;;22.07;100.00;99310.00;5043828;28;20185;-79
2023/07/10 02:51:02;;;;;;;0.10;0.10;;;;;;;21.90;100.00;99309.13;5042535;28;20177;-79
2023/07/10 02:53:32;;;;;;;0.03;0.03;;;;;;;21.81;100.00;99302.91;5009594;28;20198;-79
2023/07/10 02:56:00;;;;;;;0.10;0.10;;;;;;;21.73;100.00;99304.75;5007138;28;20676;-79
2023/07/10 02:58:28;;;;;;;0.10;0.10;;;;;;;21.60;100.00;99299.81;5007008;28;20203;-79
2023/07/10 03:00:57;;;;;;;0.10;0.10;;;;;;;21.46;100.00;99306.69;5003222;28;20270;-79
2023/07/10 03:03:28;;;;;;;0.10;0.10;;;;;;;21.57;100.00;99300.97;5006964;28;20276;-79
2023/07/10 03:05:57;;;;;;;0.10;0.10;;;;;;;21.50;100.00;99302.66;5006163;28;20355;-79
2023/07/10 03:08:26;;;;;;;0.10;0.10;;;;;;;21.53;100.00;99302.34;5002712;28;20681;-79
2023/07/10 03:11:02;;;;;;;0.10;0.10;;;;;;;21.56;100.00;99306.53;5016655;28;20197;-78
2023/07/10 03:13:31;;;;;;;0.10;0.10;;;;;;;21.55;100.00;99308.41;5050579;28;20181;-78
2023/07/10 03:16:01;;;;;;;0.10;0.10;;;;;;;21.50;100.00;99302.66;5049844;28;20676;-78
2023/07/10 03:18:32;;;;;;;0.10;0.10;;;;;;;21.56;100.00;99306.53;5050801;28;20201;-78
2023/07/10 03:21:00;;;;;;;0.10;0.10;;;;;;;21.49;100.00;99309.03;5047851;28;20230;-78
2023/07/10 03:24:08;;;;;;;0.10;0.10;;;;;;;21.53;100.00;99305.03;5043913;28;20182;-78
2023/07/10 03:26:37;;;;;;;0.10;0.10;;;;;;;21.49;100.00;99308.19;5041707;28;20704;-79
2023/07/10 03:29:08;;;;;;;0.10;0.10;;;;;;;21.61;100.00;99304.19;5025387;28;20209;-78
2023/07/10 03:31:36;;;;;;;0.10;0.10;;;;;;;21.45;100.00;99306.84;5028557;28;20220;-78
2023/07/10 03:34:13;;;;;;;0.10;0.10;;;;;;;21.45;100.00;99305.00;5030068;28;20228;-78
2023/07/10 03:36:42;;;;;;;0.10;0.10;;;;;;;21.46;100.00;99304.00;5029696;28;20201;-78
2023/07/10 03:39:12;;;;;;;0.10;0.10;;;;;;;21.34;100.00;99310.69;5009402;28;20217;-78
2023/07/10 03:41:40;;;;;;;0.10;0.10;;;;;;;21.43;100.00;99313.25;5026581;28;20190;-78
2023/07/10 03:44:10;;;;;;;0.10;0.10;;;;;;;21.53;100.00;99315.81;5024680;28;20178;-79
2023/07/10 03:46:38;;;;;;;0.10;0.10;;;;;;;21.39;100.00;99316.44;5029519;28;20256;-78
2023/07/10 03:49:07;;;;;;;0.10;0.10;;;;;;;21.44;100.00;99327.56;5025300;28;20239;-78
2023/07/10 03:51:37;;;;;;;0.10;0.10;;;;;;;21.35;100.00;99339.34;5029355;28;20202;-78
2023/07/10 03:54:08;;;;;;;0.10;0.10;;;;;;;21.24;100.00;99347.69;5025635;28;20285;-79
2023/07/10 03:56:36;;;;;;;0.10;0.10;;;;;;;21.35;100.00;99347.41;5028206;28;20186;-78
2023/07/10 03:59:09;;;;;;;0.10;0.10;;;;;;;21.41;100.00;99357.53;5029178;28;20221;-78
2023/07/10 04:01:39;;;;;;;0.10;0.10;;;;;;;21.34;100.00;99359.22;5027782;28;20696;-78
2023/07/10 04:04:07;;;;;;;0.10;0.10;;;;;;;21.29;100.00;99356.97;4967349;28;20200;-79
2023/07/10 04:06:37;;;;;;;0.10;0.10;;;;;;;21.42;100.00;99357.41;4967825;28;20310;-78
2023/07/10 04:09:06;;;;;;;0.10;0.10;;;;;;;21.32;100.00;99366.59;4965590;28;20254;-79
2023/07/10 04:11:35;;;;;;;0.10;0.10;;;;;;;21.22;100.00;99376.59;4962994;28;20196;-78
2023/07/10 04:14:03;;;;;;;0.10;0.10;;;;;;;21.07;100.00;99384.47;4970482;28;20287;-78
2023/07/10 04:16:31;;;;;;;0.10;0.10;;;;;;;21.13;100.00;99383.81;4921407;28;20715;-78
2023/07/10 04:19:00;;;;;;;0.10;0.10;;;;;;;21.13;100.00;99397.28;4916297;28;20210;-78
2023/07/10 04:21:30;;;;;;;0.10;0.10;;;;;;;21.19;100.00;99407.41;4963293;28;20686;-78
2023/07/10 04:24:04;;;;;;;0.10;0.10;;;;;;;21.18;100.00;99415.66;4919068;28;20289;-78
2023/07/10 04:26:35;;;;;;;0.10;0.10;;;;;;;21.18;100.00;99418.38;4974140;28;20234;-78
2023/07/10 04:29:06;;;;;;;0.10;0.10;;;;;;;21.21;100.00;99435.03;5006029;28;20226;-78
2023/07/10 04:31:35;;;;;;;0.10;0.10;;;;;;;21.42;100.00;99435.56;5030079;28;20198;-78
2023/07/10 04:34:04;;;;;;;0.10;0.10;;;;;;;21.42;100.00;99437.38;5027503;28;20190;-78
2023/07/10 04:36:32;;;;;;;0.03;0.03;;;;;;;21.56;100.00;99447.56;5029194;28;20277;-79
2023/07/10 04:39:02;;;;;;;0.10;0.10;;;;;;;21.47;100.00;99440.44;5029407;28;20226;-78
2023/07/10 04:41:31;;;;;;;0.10;0.10;;;;;;;21.11;100.00;99445.09;5029649;28;20619;-78
2023/07/10 04:44:00;;;;;;;0.10;0.10;;;;;;;21.34;100.00;99445.44;5028821;28;20198;-78
2023/07/10 04:46:28;;;;;;;0.10;0.10;;;;;;;21.46;100.00;99448.69;5029738;28;20194;-78
2023/07/10 04:48:56;;;;;;;0.10;0.10;;;;;;;21.48;100.00;99447.53;5029796;28;20190;-78
2023/07/10 04:51:25;;;;;;;0.10;0.10;;;;;;;21.37;100.00;99445.97;5029485;28;20197;-78
2023/07/10 04:53:53;;;;;;;0.10;0.10;;;;;;;21.49;100.00;99448.38;5031513;28;20183;-78
2023/07/10 04:56:22;;;;;;;0.10;0.10;;;;;;;21.65;100.00;99452.00;5032781;28;20216;-79
2023/07/10 04:58:53;;;;;;;0.10;0.10;;;;;;;21.68;100.00;99450.81;4998584;28;20196;-78
2023/07/10 05:01:24;;;;;;;0.10;0.10;;;;;;;21.69;100.00;99447.13;5033132;28;20622;-78
2023/07/10 05:03:52;;;;;;;0.10;0.10;;;;;;;21.65;100.00;99443.06;5032757;28;20194;-78
2023/07/10 05:06:21;;;;;;;0.10;0.10;;;;;;;21.65;100.00;99438.50;5028079;28;20201;-78
2023/07/10 05:08:52;;;;;;;0.10;0.10;;;;;;;21.64;100.00;99439.53;5006975;28;20729;-78
2023/07/10 05:11:27;;;;;;;0.10;0.10;;;;;;;21.52;100.00;99435.44;4948703;29;20201;-78
2023/07/10 05:13:55;;;;;;;0.10;0.10;;;;;;;21.61;100.00;99441.69;4953642;28;20332;-78
2023/07/10 05:16:25;;;;;;;0.10;0.10;;;;;;;21.67;100.00;99451.81;4947144;28;20235;-78
2023/07/10 05:18:54;;;;;;;0.10;0.10;;;;;;;21.77;100.00;99457.09;4903265;28;20284;-78
2023/07/10 05:21:26;;;;;;;0.10;0.10;;;;;;;21.89;100.00;99453.94;4948397;29;20203;-78
2023/07/10 05:23:54;;;;;;;0.10;0.10;;;;;;;21.94;100.00;99462.41;4952598;29;20204;-78
2023/07/10 05:26:22;;;;;;;0.10;0.10;;;;;;;21.92;100.00;99455.47;4953177;28;20272;-78
2023/07/10 05:28:51;;;;;;;0.10;0.10;;;;;;;21.50;100.00;99453.59;4950051;29;20688;-78
2023/07/10 05:31:20;;;;;;;0.10;0.10;;;;;;;21.62;100.00;99452.34;4946956;29;20272;-78
2023/07/10 05:33:50;;;;;;;0.10;0.10;;;;;;;21.85;100.00;99457.13;4952605;29;20203;-78
2023/07/10 05:36:19;;;;;;;0.10;0.10;;;;;;;21.87;100.00;99449.72;4936422;28;20195;-78
2023/07/10 05:38:49;;;;;;;0.10;0.10;;;;;;;21.70;100.00;99446.09;4993645;28;20179;-78
2023/07/10 05:41:19;;;;;;;0.10;0.10;;;;;;;21.92;100.00;99447.38;4993245;28;20207;-79
2023/07/10 05:43:47;;;;;;;0.10;0.10;;;;;;;21.94;100.00;99451.59;4992702;28;20190;-78
2023/07/10 05:46:19;;;;;;;0.10;0.10;;;;;;;21.99;100.00;99449.25;4987048;28;20238;-78
2023/07/10 05:48:47;;;;;;;0.05;0.05;;;;;;;22.05;100.00;99455.00;4992003;28;20237;-78
2023/07/10 05:51:16;;;;;;;0.10;0.10;;;;;;;22.22;100.00;99462.16;4988504;28;20184;-78
2023/07/10 05:53:44;;;;;;;0.10;0.10;;;;;;;22.14;100.00;99464.84;4982955;28;20204;-78
2023/07/10 05:56:12;;;;;;;0.10;0.10;;;;;;;22.11;100.00;99478.69;4988885;28;20229;-78
2023/07/10 05:58:41;;;;;;;0.10;0.10;;;;;;;22.17;100.00;99475.31;4991763;28;20207;-78
2023/07/10 06:01:12;;;;;;;0.10;0.10;;;;;;;22.09;100.00;99475.28;4991629;28;20206;-78
2023/07/10 06:03:42;;;;;;;0.10;0.10;;;;;;;22.18;100.00;99477.81;4992579;28;20200;-79
2023/07/10 06:06:10;;;;;;;0.10;0.10;;;;;;;22.18;100.00;99477.81;4991466;28;20223;-78
2023/07/10 06:08:39;;;;;;;0.10;0.10;;;;;;;22.18;100.00;99485.94;4990689;28;20265;-78
2023/07/10 06:11:09;;;;;;;0.10;0.10;;;;;;;22.09;100.00;99491.47;4990853;28;20244;-78
2023/07/10 06:13:39;;;;;;;0.10;0.10;;;;;;;22.13;100.00;99493.69;4930449;29;20308;-78
2023/07/10 06:16:11;;;;;;;0.10;0.10;;;;;;;22.05;100.00;99493.63;4954329;28;20257;-78
2023/07/10 06:18:42;;;;;;;0.10;0.10;;;;;;;22.14;100.00;99494.53;4967412;28;20254;-78
2023/07/10 06:21:11;;;;;;;0.10;0.10;;;;;;;22.08;100.00;99493.31;4968841;28;20214;-78
2023/07/10 06:23:40;;;;;;;0.10;0.10;;;;;;;22.09;100.00;99494.16;4965009;28;20235;-78
2023/07/10 06:26:11;;;;;;;0.10;0.10;;;;;;;22.13;100.00;99498.25;4962810;28;20192;-78
2023/07/10 06:28:39;;;;;;;0.10;0.10;;;;;;;22.16;100.00;99498.75;4972016;28;20216;-78
2023/07/10 06:31:10;;;;;;;0.10;0.10;;;;;;;22.09;100.00;99494.16;4978340;28;20225;-78
2023/07/10 06:33:41;;;;;;;0.10;0.10;;;;;;;22.08;100.00;99493.31;5027212;28;20189;-78
2023/07/10 06:36:10;;;;;;;0.10;0.10;;;;;;;22.15;100.00;99488.97;5031032;28;20281;-78
2023/07/10 06:38:39;;;;;;;0.10;0.10;;;;;;;22.25;100.00;99491.50;5031009;28;20205;-78
2023/07/10 06:41:09;;;;;;;0.10;0.10;;;;;;;22.40;100.00;99475.53;5028883;28;20212;-78
2023/07/10 06:43:42;;;;;;;0.00;0.00;;;;;;;22.45;100.00;99482.13;5030596;28;20675;-78
2023/07/10 06:46:10;;;;;;;0.10;0.10;;;;;;;22.59;100.00;99485.19;5031437;28;20280;-78
2023/07/10 06:48:39;;;;;;;0.10;0.10;;;;;;;22.76;100.00;99479.59;5026466;28;20225;-78
2023/07/10 06:51:09;;;;;;;0.10;0.10;;;;;;;22.72;100.00;99480.13;5023018;28;20212;-78
2023/07/10 06:53:40;;;;;;;0.10;0.10;;;;;;;22.81;100.00;99473.72;5026529;28;20206;-78
2023/07/10 06:56:09;;;;;;;0.10;0.10;;;;;;;22.99;100.00;99484.38;5030629;28;20212;-78
2023/07/10 06:58:40;;;;;;;0.10;0.10;;;;;;;23.05;100.00;99478.28;5028453;28;20277;-78
2023/07/10 07:01:08;;;;;;;0.10;0.10;;;;;;;23.01;100.00;99468.84;5023686;28;20752;-78
2023/07/10 07:03:40;;;;;;;0.05;0.05;;;;;;;23.08;100.00;99472.56;5025058;28;20196;-78
2023/07/10 07:06:12;;;;;;;0.10;0.10;;;;;;;23.09;100.00;99474.25;5026924;28;20224;-78
2023/07/10 07:08:42;;;;;;;0.10;0.10;;;;;;;23.17;100.00;99468.00;5027276;28;20673;-79
2023/07/10 07:11:10;;;;;;;0.10;0.10;;;;;;;23.29;100.00;99469.31;5026116;28;20646;-78
2023/07/10 07:13:44;;;;;;;0.10;0.10;;;;;;;23.36;100.00;99468.47;5030217;28;20658;-79
2023/07/10 07:16:13;;;;;;;0.10;0.10;;;;;;;23.48;100.00;99460.81;5028268;28;20286;-79
2023/07/10 07:18:42;;;;;;;0.10;0.10;;;;;;;23.61;100.00;99461.13;4994486;28;20730;-78
2023/07/10 07:21:15;;;;;;;0.10;0.10;;;;;;;23.64;100.00;99460.81;5030608;28;20174;-79
2023/07/10 07:23:44;;;;;;;0.10;0.10;;;;;;;23.69;100.00;99461.09;5026814;28;20264;-79
2023/07/10 07:26:13;;;;;;;0.10;0.10;;;;;;;23.91;100.00;99442.41;5031864;28;20194;-79
2023/07/10 07:28:41;;;;;;;0.10;0.10;;;;;;;24.18;100.00;99449.19;5050453;28;20248;-79
2023/07/10 07:31:11;;;;;;;0.10;0.10;;;;;;;24.17;100.00;99442.94;5048956;28;20213;-78
2023/07/10 07:33:39;;;;;;;0.10;0.10;;;;;;;24.32;100.00;99443.06;5047185;28;20177;-79
2023/07/10 07:36:08;;;;;;;0.10;0.10;;;;;;;24.27;100.00;99442.72;5048591;28;20242;-79
2023/07/10 07:38:37;;;;;;;0.08;0.08;;;;;;;24.37;100.00;99453.34;5047931;28;20177;-79
2023/07/10 07:41:07;;;;;;;0.10;0.10;;;;;;;24.36;100.00;99452.50;5047999;28;20226;-78
2023/07/10 07:43:35;;;;;;;0.10;0.10;;;;;;;24.44;100.00;99459.75;5046768;28;20655;-79
2023/07/10 07:46:04;;;;;;;0.10;0.10;;;;;;;24.47;100.00;99452.09;5050224;28;20260;-79
2023/07/10 07:48:35;;;;;;;0.10;0.10;;;;;;;24.50;100.00;99459.00;5046838;28;20224;-78
2023/07/10 07:51:05;;;;;;;0.10;0.10;;;;;;;24.60;100.00;99464.19;5047766;28;20197;-79
2023/07/10 07:53:40;;;;;;;0.10;0.10;;;;;;;24.64;100.00;99462.81;5048476;28;20200;-78
2023/07/10 07:56:08;;;;;;;0.10;0.10;;;;;;;24.68;100.00;99459.53;5048906;28;20185;-79
2023/07/10 07:58:37;;;;;;;0.10;0.10;;;;;;;24.84;100.00;99454.00;5048114;28;20230;-79
2023/07/10 08:01:06;;;;;;;0.10;0.10;;;;;;;24.83;100.00;99465.03;5047644;28;20188;-78
2023/07/10 08:03:34;;;;;;;0.10;0.10;;;;;;;24.80;100.00;99459.94;5045067;28;20193;-79
2023/07/10 08:06:03;;;;;;;0.10;0.10;;;;;;;24.94;100.00;99463.75;5042368;28;20220;-79
2023/07/10 08:08:32;;;;;;;0.10;0.10;;;;;;;25.02;100.00;99467.25;5014825;28;20308;-79
2023/07/10 08:11:02;;;;;;;0.10;0.10;;;;;;;25.04;100.00;99477.91;5042493;28;20185;-78
2023/07/10 08:13:31;;;;;;;0.10;0.10;;;;;;;25.03;100.00;99470.81;5045394;28;20217;-79
2023/07/10 08:15:59;;;;;;;0.10;0.10;;;;;;;25.19;100.00;99467.09;5047327;28;20306;-78
2023/07/10 08:18:27;;;;;;;0.10;0.10;;;;;;;25.35;100.00;99467.78;5049996;28;20276;-79
2023/07/10 08:21:02;;;;;;;0.10;0.10;;;;;;;25.31;100.00;99468.34;5050181;28;20201;-79
2023/07/10 08:23:31;;;;;;;0.10;0.10;;;;;;;25.39;100.00;99469.09;5045975;28;20202;-78
2023/07/10 08:26:02;;;;;;;0.10;0.10;;;;;;;25.45;100.00;99475.63;5046995;28;20204;-79
2023/07/10 08:28:33;;;;;;;0.10;0.10;;;;;;;25.38;100.00;99472.84;5052630;28;20185;-79
2023/07/10 08:31:04;;;;;;;0.10;0.10;;;;;;;25.61;100.00;99474.63;5052705;28;20185;-79
2023/07/10 08:33:38;;;;;;;0.10;0.10;;;;;;;25.66;100.00;99473.00;5052784;28;20216;-79
2023/07/10 08:36:08;;;;;;;0.10;0.10;;;;;;;25.65;100.00;99470.50;5050788;28;20201;-79
2023/07/10 08:38:38;;;;;;;0.00;0.00;;;;;;;25.60;100.00;99481.91;5052128;28;20193;-79
2023/07/10 08:41:18;;;;;;;0.10;0.10;;;;;;;25.52;100.00;99476.59;5053428;28;20197;-79
2023/07/10 08:43:49;;;;;;;0.10;0.10;;;;;;;25.65;100.00;99482.19;5049146;28;20656;-79
2023/07/10 08:46:21;;;;;;;0.10;0.10;;;;;;;25.26;100.00;99473.47;5050400;28;20284;-79
2023/07/10 08:48:55;;;;;;;0.10;0.10;;;;;;;25.33;100.00;99491.53;5046632;28;20626;-79
2023/07/10 08:51:33;;;;;;;0.00;0.00;;;;;;;25.48;100.00;99483.41;5051746;28;20660;-79
2023/07/10 08:54:06;;;;;;;0.10;0.10;;;;;;;25.81;100.00;99483.06;5051814;28;20552;-79
2023/07/10 08:56:42;;;;;;;0.10;0.10;;;;;;;25.87;100.00;99483.16;5048756;28;20208;-79
2023/07/10 08:59:25;;;;;;;0.10;0.10;;;;;;;25.57;100.00;99487.69;5051285;28;20178;-79
2023/07/10 09:01:57;;;;;;;0.08;0.08;;;;;;;25.68;100.00;99489.97;5051341;28;20224;-78
2023/07/10 09:04:27;;;;;;;0.10;0.10;;;;;;;25.66;100.00;99496.59;5040344;28;20265;-79
2023/07/10 09:06:59;;;;;;;0.10;0.10;;;;;;;25.65;100.00;99493.03;5048288;28;20256;-79
2023/07/10 09:09:35;;;;;;;0.10;0.10;;;;;;;25.43;100.00;99501.28;5047838;28;20205;-79
2023/07/10 09:12:12;;;;;;;0.10;0.10;;;;;;;25.38;100.00;99504.53;5052052;28;20203;-79
2023/07/10 09:14:47;;;;;;;0.10;0.10;;;;;;;25.27;100.00;99503.09;5052067;28;20262;-79
2023/07/10 09:17:28;;;;;;;0.10;0.10;;;;;;;25.13;100.00;99505.81;5050055;28;20193;-79
2023/07/10 09:19:58;;;;;;;0.10;0.10;;;;;;;25.05;100.00;99512.97;5051757;28;20193;-78
2023/07/10 09:22:27;;;;;;;0.10;0.10;;;;;;;25.08;100.00;99515.31;5046567;28;20193;-78
2023/07/10 09:24:57;;;;;;;0.10;0.10;;;;;;;25.19;100.00;99522.19;5046606;28;20197;-79
2023/07/10 09:27:29;;;;;;;0.10;0.10;;;;;;;25.17;100.00;99512.53;5053044;28;20178;-78
2023/07/10 09:29:58;;;;;;;0.10;0.10;;;;;;;25.16;100.00;99519.81;5058320;27;20201;-79
2023/07/10 09:32:27;;;;;;;0.10;0.10;;;;;;;24.86;100.00;99513.44;5050640;28;20365;-79
2023/07/10 09:35:00;;;;;;;0.10;0.10;;;;;;;24.97;100.00;99510.28;5048301;28;20185;-78
2023/07/10 09:37:35;;;;;;;0.10;0.10;;;;;;;25.04;100.00;99522.13;5051168;28;20201;-78
2023/07/10 09:40:21;;;;;;;0.10;0.10;;;;;;;25.08;100.00;99523.44;5049979;28;20203;-79
2023/07/10 09:42:51;;;;;;;0.00;0.00;;;;;;;25.01;100.00;99522.47;5051530;28;20223;-79
2023/07/10 09:45:19;;;;;;;0.10;0.10;;;;;;;25.13;100.00;99528.31;5048481;28;20215;-79
2023/07/10 09:47:50;;;;;;;0.10;0.10;;;;;;;25.31;100.00;99522.59;5050836;28;20182;-79
2023/07/10 09:50:20;;;;;;;0.10;0.10;;;;;;;25.22;100.00;99515.53;5050410;28;20288;-79
2023/07/10 09:52:53;;;;;;;0.08;0.08;;;;;;;25.32;100.00;99519.69;5050867;28;20196;-79
2023/07/10 09:55:23;;;;;;;0.10;0.10;;;;;;;25.58;100.00;99507.56;5051315;28;20184;-78
2023/07/10 09:57:58;;;;;;;0.10;0.10;;;;;;;25.50;100.00;99491.38;5050581;28;20204;-79
2023/07/10 10:00:28;;;;;;;0.10;0.10;;;;;;;25.87;100.00;99491.31;5046415;28;20185;-79
2023/07/10 10:02:58;;;;;;;0.08;0.08;;;;;;;26.23;100.00;99501.34;5052529;28;20181;-79
2023/07/10 10:05:28;;;;;;;0.10;0.10;;;;;;;26.32;100.00;99493.94;5042925;28;20196;-79
2023/07/10 10:08:04;;;;;;;0.10;0.10;;;;;;;26.15;100.00;99487.88;5051928;28;20198;-79
2023/07/10 10:10:37;;;;;;;0.00;0.00;;;;;;;26.45;100.00;99489.53;5048506;28;20231;-79
2023/07/10 10:13:18;;;;;;;0.08;0.08;;;;;;;26.40;100.00;99483.00;5049498;28;20205;-79
2023/07/10 10:15:54;;;;;;;0.10;0.10;;;;;;;26.08;100.00;99484.25;5054115;28;20221;-79
2023/07/10 10:18:35;;;;;;;0.10;0.10;;;;;;;26.65;100.00;99484.31;5049772;28;20639;-79
2023/07/10 10:21:05;;;;;;;0.10;0.10;;;;;;;26.01;100.00;99491.47;5045582;28;20185;-80
2023/07/10 10:23:36;;;;;;;0.10;0.10;;;;;;;26.59;100.00;99487.78;5045089;28;20203;-79
2023/07/10 10:26:27;;;;;;;0.10;0.10;;;;;;;26.19;100.00;99491.91;5044402;28;20246;-80
2023/07/10 10:29:21;;;;;;;0.00;0.00;;;;;;;25.99;100.00;99493.53;5047464;28;20234;-79
2023/07/10 10:31:56;;;;;;;0.10;0.10;;;;;;;25.69;100.00;99501.66;5048840;28;20224;-79
2023/07/10 10:34:34;;;;;;;0.10;0.10;;;;;;;25.54;100.00;99498.09;5052687;28;20204;-79
2023/07/10 10:37:18;;;;;;;0.03;0.03;;;;;;;26.13;100.00;99493.50;5046947;28;20199;-79
2023/07/10 10:40:00;;;;;;;0.03;0.03;;;;;;;26.23;100.00;99494.03;5046904;28;20680;-79
2023/07/10 10:42:36;;;;;;;0.00;0.00;;;;;;;26.58;100.00;99486.13;5041669;28;20194;-79
2023/07/10 10:45:15;;;;;;;0.10;0.10;;;;;;;26.60;100.00;99494.91;5044780;28;20228;-79
2023/07/10 10:47:51;;;;;;;0.00;0.00;;;;;;;26.80;100.00;99487.78;5049535;28;20257;-80
2023/07/10 10:50:49;;;;;;;0.10;0.10;;;;;;;26.74;100.00;99488.59;5044394;28;20230;-80
2023/07/10 10:53:31;;;;;;;0.10;0.10;;;;;;;26.77;100.00;99487.34;5050898;28;20177;-80
2023/07/10 10:56:13;;;;;;;0.00;0.00;;;;;;;26.64;100.00;99484.50;5050873;28;20201;-79
2023/07/10 10:58:53;;;;;;;0.10;0.10;;;;;;;26.71;100.00;99486.22;5049041;28;20203;-79
2023/07/10 11:01:35;;;;;;;0.08;0.08;;;;;;;26.75;100.00;99479.41;5044443;28;20203;-80
2023/07/10 11:04:15;;;;;;;0.08;0.08;;;;;;;26.64;100.00;99479.91;5044032;28;20200;-79
2023/07/10 11:06:52;;;;;;;0.10;0.10;;;;;;;26.96;100.00;99477.69;5043222;28;20192;-79
2023/07/10 11:09:25;;;;;;;0.10;0.10;;;;;;;27.48;100.00;99473.72;5048497;28;20201;-79
2023/07/10 11:11:56;;;;;;;0.10;0.10;;;;;;;27.45;100.00;99474.97;5048136;28;20249;-79
2023/07/10 11:14:25;;;;;;;0.10;0.10;;;;;;;28.15;100.00;99465.72;5055078;28;20208;-80
2023/07/10 11:16:58;;;;;;;0.10;0.10;;;;;;;28.47;97.15;99471.47;5045788;28;20196;-79
2023/07/10 11:19:30;;;;;;;0.10;0.10;;;;;;;28.46;95.91;99464.34;5048324;28;20243;-80
2023/07/10 11:22:12;;;;;;;0.10;0.10;;;;;;;28.06;99.55;99460.66;5050144;28;20672;-79
2023/07/10 11:24:49;;;;;;;0.00;0.00;;;;;;;28.76;95.47;99457.50;5047962;28;20214;-80
2023/07/10 11:27:22;;;;;;;0.10;0.10;;;;;;;28.68;95.69;99457.72;5050450;28;20623;-80
2023/07/10 11:30:07;;;;;;;0.10;0.10;;;;;;;28.20;94.52;99459.66;5047251;28;20224;-80
2023/07/10 11:32:57;;;;;;;0.00;0.00;;;;;;;27.62;96.13;99465.44;5045552;28;20274;-79
2023/07/10 11:35:26;;;;;;;0.10;0.10;;;;;;;26.89;100.00;99483.06;5047676;28;20230;-79
2023/07/10 11:38:17;;;;;;;0.10;0.10;;;;;;;27.25;100.00;99471.25;5046208;28;20246;-80
2023/07/10 11:40:53;;;;;;;0.00;0.00;;;;;;;27.55;100.00;99472.72;5049068;28;20177;-80
2023/07/10 11:43:59;;;;;;;0.10;0.10;;;;;;;27.29;98.28;99470.66;5058554;27;20257;-80
2023/07/10 11:46:31;;;;;;;0.10;0.10;;;;;;;27.39;96.81;99473.03;5047085;28;20204;-80
2023/07/10 11:49:20;;;;;;;0.00;0.00;;;;;;;27.98;94.61;99469.81;5047496;28;20186;-79
2023/07/10 11:52:14;;;;;;;0.10;0.10;;;;;;;28.12;89.36;99470.72;5037320;28;20221;-80
2023/07/10 11:54:44;;;;;;;0.10;0.10;;;;;;;28.17;83.21;99469.06;5049623;28;20239;-80
2023/07/10 11:57:20;;;;;;;0.00;0.00;;;;;;;28.12;85.02;99470.72;5046972;28;20197;-80
2023/07/10 11:59:54;;;;;;;0.10;0.10;;;;;;;28.08;82.56;99458.53;5027481;28;20192;-80
2023/07/10 12:02:32;;;;;;;0.10;0.10;;;;;;;28.77;79.43;99459.19;5049465;28;20197;-80
2023/07/10 12:05:16;;;;;;;0.00;0.00;;;;;;;29.31;81.97;99451.84;5046074;28;20261;-80